createdAt,value
2019-05-21T00:00:32.810Z,15.98
2019-05-21T00:03:20.540Z,15.99
2019-05-21T00:06:07.912Z,15.98
2019-05-21T00:08:56.123Z,15.94
2019-05-21T00:11:43.929Z,15.96
2019-05-21T00:14:31.758Z,15.93
2019-05-21T00:17:19.384Z,15.94
2019-05-21T00:20:07.219Z,15.93
2019-05-21T00:22:54.833Z,15.92
2019-05-21T00:25:42.675Z,15.91
2019-05-21T00:28:39.575Z,15.91
2019-05-21T00:32:03.906Z,15.95
2019-05-21T00:35:42.510Z,15.92
2019-05-21T00:39:07.172Z,15.97
2019-05-21T00:42:00.524Z,15.99
2019-05-21T00:44:48.152Z,16.04
2019-05-21T00:47:35.966Z,16.03
2019-05-21T00:50:23.925Z,16.03
2019-05-21T00:53:12.144Z,16.07
2019-05-21T00:56:00.207Z,16.03
2019-05-21T00:58:48.147Z,16.04
2019-05-21T01:01:35.813Z,16.05
2019-05-21T01:04:23.684Z,16.06
2019-05-21T01:07:11.543Z,16.09
2019-05-21T01:10:00.018Z,16.11
2019-05-21T01:12:47.623Z,16.11
2019-05-21T01:15:35.367Z,16.10
2019-05-21T01:18:22.976Z,16.08
2019-05-21T01:21:11.067Z,16.07
2019-05-21T01:23:59.287Z,16.06
2019-05-21T01:26:46.929Z,16.06
2019-05-21T01:29:34.867Z,16.08
2019-05-21T01:32:23.051Z,16.07
2019-05-21T01:35:17.065Z,16.10
2019-05-21T01:37:59.051Z,16.05
2019-05-21T01:40:47.325Z,16.06
2019-05-21T01:43:34.945Z,15.99
2019-05-21T01:46:22.483Z,15.96
2019-05-21T01:49:10.707Z,15.95
2019-05-21T01:51:58.994Z,15.97
2019-05-21T01:54:47.008Z,15.99
2019-05-21T01:57:34.647Z,16.00
2019-05-21T02:00:22.486Z,16.00
2019-05-21T02:03:10.088Z,15.99
2019-05-21T02:05:57.941Z,15.98
2019-05-21T02:08:46.163Z,16.01
2019-05-21T02:11:33.624Z,15.99
2019-05-21T02:14:21.240Z,15.99
2019-05-21T02:17:08.973Z,15.98
2019-05-21T02:19:56.486Z,16.01
2019-05-21T02:22:44.437Z,16.01
2019-05-21T02:25:32.083Z,15.99
2019-05-21T02:28:20.141Z,15.90
2019-05-21T02:31:07.758Z,15.89
2019-05-21T02:33:55.363Z,15.83
2019-05-21T02:36:43.214Z,15.80
2019-05-21T02:39:31.027Z,15.79
2019-05-21T02:42:18.633Z,15.78
2019-05-21T02:45:06.138Z,15.75
2019-05-21T02:47:53.780Z,15.72
2019-05-21T02:50:41.819Z,15.68
2019-05-21T02:53:33.900Z,15.65
2019-05-21T02:56:17.566Z,15.63
2019-05-21T02:59:06.090Z,15.60
2019-05-21T03:02:00.953Z,15.59
2019-05-21T03:04:49.109Z,15.58
2019-05-21T03:07:36.899Z,15.58
2019-05-21T03:10:24.495Z,15.57
2019-05-21T03:13:11.949Z,15.54
2019-05-21T03:15:59.667Z,15.54
2019-05-21T03:18:47.830Z,15.54
2019-05-21T03:21:35.464Z,15.54
2019-05-21T03:24:23.067Z,15.56
2019-05-21T03:27:10.785Z,15.52
2019-05-21T03:29:58.424Z,15.49
2019-05-21T03:32:45.991Z,15.49
2019-05-21T03:35:34.231Z,15.47
2019-05-21T03:38:22.060Z,15.45
2019-05-21T03:41:10.283Z,15.44
2019-05-21T03:43:58.268Z,15.41
2019-05-21T03:46:45.748Z,15.41
2019-05-21T03:49:34.121Z,15.38
2019-05-21T03:52:21.644Z,15.37
2019-05-21T03:55:09.241Z,15.35
2019-05-21T03:57:57.014Z,15.33
2019-05-21T04:00:44.950Z,15.29
2019-05-21T04:03:33.119Z,15.26
2019-05-21T04:06:21.015Z,15.25
2019-05-21T04:09:08.888Z,15.20
2019-05-21T04:11:56.383Z,15.19
2019-05-21T04:14:47.032Z,15.21
2019-05-21T04:17:40.319Z,15.17
2019-05-21T04:20:28.472Z,15.17
2019-05-21T04:23:15.897Z,15.12
2019-05-21T04:26:03.653Z,15.08
2019-05-21T04:28:51.860Z,15.10
2019-05-21T04:31:39.354Z,15.10
2019-05-21T04:34:27.595Z,15.10
2019-05-21T04:37:17.447Z,15.09
2019-05-21T04:40:03.481Z,15.10
2019-05-21T04:42:51.689Z,15.08
2019-05-21T04:45:39.285Z,15.05
2019-05-21T04:48:27.335Z,15.04
2019-05-21T04:51:15.502Z,15.07
2019-05-21T04:54:03.743Z,15.01
2019-05-21T04:56:51.959Z,15.04
2019-05-21T04:59:39.738Z,15.04
2019-05-21T05:02:27.232Z,15.05
2019-05-21T05:05:14.841Z,15.06
2019-05-21T05:08:02.461Z,15.02
2019-05-21T05:10:50.986Z,15.00
2019-05-21T05:13:39.133Z,15.00
2019-05-21T05:16:26.629Z,15.02
2019-05-21T05:19:14.166Z,15.05
2019-05-21T05:22:02.690Z,15.05
2019-05-21T05:24:50.370Z,15.09
2019-05-21T05:27:37.967Z,15.08
2019-05-21T05:30:25.417Z,15.06
2019-05-21T05:33:13.127Z,15.02
2019-05-21T05:36:01.299Z,15.04
2019-05-21T05:38:48.929Z,15.05
2019-05-21T05:41:36.872Z,15.11
2019-05-21T05:44:24.657Z,15.11
2019-05-21T05:47:12.097Z,15.14
2019-05-21T05:49:59.762Z,15.18
2019-05-21T05:52:48.070Z,15.21
2019-05-21T05:55:36.345Z,15.17
2019-05-21T05:58:23.865Z,15.12
2019-05-21T06:01:11.660Z,15.17
2019-05-21T06:03:59.978Z,15.13
2019-05-21T06:06:47.778Z,15.18
2019-05-21T06:09:36.038Z,15.23
2019-05-21T06:12:23.766Z,15.27
2019-05-21T06:15:11.648Z,15.27
2019-05-21T06:17:59.177Z,15.30
2019-05-21T06:20:47.008Z,15.33
2019-05-21T06:23:35.149Z,15.34
2019-05-21T06:26:22.989Z,15.32
2019-05-21T06:29:10.885Z,15.24
2019-05-21T06:31:58.356Z,15.35
2019-05-21T06:34:48.635Z,15.44
2019-05-21T06:37:34.865Z,15.50
2019-05-21T06:40:22.388Z,15.51
2019-05-21T06:43:10.472Z,15.56
2019-05-21T06:45:58.180Z,15.56
2019-05-21T06:48:46.653Z,15.61
2019-05-21T06:51:34.392Z,15.65
2019-05-21T06:54:21.959Z,15.64
2019-05-21T06:57:09.491Z,15.61
2019-05-21T06:59:57.592Z,15.59
2019-05-21T07:02:45.152Z,15.54
2019-05-21T07:05:32.739Z,15.50
2019-05-21T07:08:34.057Z,15.50
2019-05-21T07:11:09.333Z,15.48
2019-05-21T07:13:57.113Z,15.44
2019-05-21T07:16:44.977Z,15.46
2019-05-21T07:19:32.618Z,15.37
2019-05-21T07:22:20.925Z,15.25
2019-05-21T07:25:09.149Z,15.18
2019-05-21T07:27:56.715Z,15.04
2019-05-21T07:30:44.185Z,14.91
2019-05-21T07:33:32.337Z,14.90
2019-05-21T07:36:20.107Z,14.92
2019-05-21T07:39:07.827Z,14.88
2019-05-21T07:41:55.559Z,14.92
2019-05-21T07:44:43.978Z,14.90
2019-05-21T07:47:31.999Z,14.95
2019-05-21T07:50:19.555Z,14.96
2019-05-21T07:53:07.797Z,14.98
2019-05-21T07:55:55.777Z,14.99
2019-05-21T07:58:43.356Z,14.97
2019-05-21T08:01:31.173Z,14.95
2019-05-21T08:04:19.411Z,14.98
2019-05-21T08:07:07.377Z,15.03
2019-05-21T08:09:55.572Z,15.05
2019-05-21T08:12:43.408Z,15.07
2019-05-21T08:15:31.571Z,15.11
2019-05-21T08:18:19.887Z,15.06
2019-05-21T08:21:07.979Z,15.07
2019-05-21T08:23:55.807Z,15.12
2019-05-21T08:26:43.443Z,15.07
2019-05-21T08:29:31.088Z,14.99
2019-05-21T08:32:18.513Z,15.01
2019-05-21T08:35:06.288Z,14.96
2019-05-21T08:37:53.906Z,15.01
2019-05-21T08:40:41.885Z,14.99
2019-05-21T08:43:30.122Z,14.95
2019-05-21T08:46:18.389Z,15.06
2019-05-21T08:49:06.721Z,15.11
2019-05-21T08:51:55.168Z,15.16
2019-05-21T08:54:55.868Z,15.17
2019-05-21T08:57:40.413Z,15.06
2019-05-21T09:00:28.146Z,15.08
2019-05-21T09:03:15.995Z,15.05
2019-05-21T09:06:04.226Z,15.05
2019-05-21T09:08:51.724Z,15.00
2019-05-21T09:11:39.601Z,14.92
2019-05-21T09:14:27.460Z,14.95
2019-05-21T09:17:15.154Z,14.99
2019-05-21T09:20:03.609Z,15.03
2019-05-21T09:22:51.764Z,14.97
2019-05-21T09:25:39.672Z,15.02
2019-05-21T09:28:27.416Z,15.09
2019-05-21T09:31:15.085Z,15.08
2019-05-21T09:34:02.618Z,15.05
2019-05-21T09:36:50.304Z,15.07
2019-05-21T09:39:38.194Z,15.04
2019-05-21T09:42:25.827Z,15.06
2019-05-21T09:45:13.362Z,15.07
2019-05-21T09:48:01.457Z,15.01
2019-05-21T09:50:48.968Z,14.97
2019-05-21T09:53:37.144Z,14.98
2019-05-21T09:56:33.989Z,14.92
2019-05-21T09:59:34.412Z,14.14
2019-05-21T10:02:23.921Z,14.96
2019-05-21T10:05:11.580Z,14.99
2019-05-21T10:07:59.699Z,14.97
2019-05-21T10:10:47.979Z,14.88
2019-05-21T10:13:36.031Z,14.81
2019-05-21T10:16:24.223Z,14.86
2019-05-21T10:19:11.805Z,14.90
2019-05-21T10:21:59.644Z,14.90
2019-05-21T10:24:47.248Z,14.96
2019-05-21T10:27:35.432Z,15.02
2019-05-21T10:30:23.544Z,15.05
2019-05-21T10:33:11.694Z,15.11
2019-05-21T10:35:59.212Z,15.11
2019-05-21T10:38:47.101Z,15.11
2019-05-21T10:41:34.587Z,15.00
2019-05-21T10:44:22.804Z,15.23
2019-05-21T10:47:10.336Z,15.13
2019-05-21T10:49:58.320Z,14.95
2019-05-21T10:52:46.649Z,15.00
2019-05-21T10:55:34.472Z,15.17
2019-05-21T10:58:22.226Z,15.09
2019-05-21T11:01:17.683Z,15.06
2019-05-21T11:04:21.908Z,14.92
2019-05-21T11:07:11.521Z,14.95
2019-05-21T11:09:59.073Z,14.95
2019-05-21T11:12:47.046Z,14.91
2019-05-21T11:15:34.829Z,14.88
2019-05-21T11:18:22.668Z,14.84
2019-05-21T11:21:10.390Z,14.96
2019-05-21T11:23:58.870Z,14.84
2019-05-21T11:26:46.424Z,14.91
2019-05-21T11:29:34.521Z,14.96
2019-05-21T11:32:22.034Z,14.96
2019-05-21T11:35:09.792Z,14.88
2019-05-21T11:37:57.394Z,14.83
2019-05-21T11:40:50.771Z,14.82
2019-05-21T11:43:33.218Z,14.65
2019-05-21T11:46:21.600Z,14.65
2019-05-21T11:49:09.281Z,14.67
2019-05-21T11:51:57.030Z,14.80
2019-05-21T11:54:45.229Z,14.92
2019-05-21T11:57:33.583Z,14.91
2019-05-21T12:00:21.999Z,14.99
2019-05-21T12:03:09.441Z,14.98
2019-05-21T12:05:57.147Z,15.04
2019-05-21T12:08:56.023Z,15.11
2019-05-21T12:11:32.256Z,15.28
2019-05-21T12:14:20.531Z,15.25
2019-05-21T12:17:08.843Z,15.29
2019-05-21T12:19:56.230Z,15.10
2019-05-21T12:22:44.233Z,14.94
2019-05-21T12:25:31.989Z,14.93
2019-05-21T12:28:20.388Z,14.98
2019-05-21T12:31:07.948Z,14.91
2019-05-21T12:33:56.177Z,14.96
2019-05-21T12:36:43.748Z,14.77
2019-05-21T12:39:32.071Z,14.79
2019-05-21T12:42:19.871Z,14.77
2019-05-21T12:45:07.525Z,14.84
2019-05-21T12:47:55.446Z,14.91
2019-05-21T12:50:43.714Z,14.80
2019-05-21T12:53:31.959Z,14.81
2019-05-21T12:56:19.592Z,14.90
2019-05-21T12:59:07.220Z,14.98
2019-05-21T13:01:57.316Z,15.05
2019-05-21T13:04:45.368Z,15.22
2019-05-21T13:07:33.084Z,15.26
2019-05-21T13:10:20.816Z,15.38
2019-05-21T13:13:08.522Z,15.25
2019-05-21T13:15:56.191Z,15.27
2019-05-21T13:18:43.793Z,15.17
2019-05-21T13:21:31.663Z,15.10
2019-05-21T13:24:19.464Z,15.21
2019-05-21T13:27:07.865Z,15.23
2019-05-21T13:29:55.455Z,15.28
2019-05-21T13:32:43.977Z,15.30
2019-05-21T13:35:31.039Z,15.19
2019-05-21T13:38:18.740Z,15.10
2019-05-21T13:41:06.333Z,15.12
2019-05-21T13:43:54.393Z,14.99
2019-05-21T13:46:42.267Z,15.14
2019-05-21T13:49:29.874Z,15.20
2019-05-21T13:52:17.537Z,15.27
2019-05-21T13:55:05.580Z,15.21
2019-05-21T13:57:53.696Z,15.10
2019-05-21T14:00:43.733Z,15.07
2019-05-21T14:03:31.148Z,15.11
2019-05-21T14:06:20.392Z,15.17
2019-05-21T14:09:06.943Z,15.26
2019-05-21T14:11:56.623Z,15.27
2019-05-21T14:14:42.402Z,15.30
2019-05-21T14:17:29.948Z,15.29
2019-05-21T14:20:18.322Z,15.16
2019-05-21T14:23:06.597Z,15.11
2019-05-21T14:25:54.206Z,14.97
2019-05-21T14:28:41.853Z,15.04
2019-05-21T14:31:29.478Z,14.91
2019-05-21T14:34:17.206Z,14.84
2019-05-21T14:37:04.955Z,14.86
2019-05-21T14:39:53.169Z,14.80
2019-05-21T14:42:58.117Z,14.74
2019-05-21T14:45:33.915Z,14.73
2019-05-21T14:48:17.313Z,14.67
2019-05-21T14:51:05.851Z,14.67
2019-05-21T14:53:54.128Z,14.53
2019-05-21T14:56:46.691Z,14.54
2019-05-21T14:59:29.351Z,14.55
2019-05-21T15:02:16.901Z,14.61
2019-05-21T15:05:04.930Z,14.60
2019-05-21T15:07:52.326Z,14.54
2019-05-21T15:10:48.643Z,14.53
2019-05-21T15:13:28.229Z,14.52
2019-05-21T15:16:16.232Z,14.47
2019-05-21T15:19:03.822Z,14.42
2019-05-21T15:21:52.999Z,14.42
2019-05-21T15:24:41.346Z,14.45
2019-05-21T15:27:29.373Z,14.47
2019-05-21T15:30:16.740Z,14.47
2019-05-21T15:33:04.948Z,14.50
2019-05-21T15:35:52.342Z,14.52
2019-05-21T15:38:50.196Z,14.57
2019-05-21T15:41:28.108Z,14.59
2019-05-21T15:44:15.987Z,14.55
2019-05-21T15:47:03.903Z,14.63
2019-05-21T15:49:51.647Z,14.75
2019-05-21T15:52:39.107Z,14.87
2019-05-21T15:55:26.696Z,14.97
2019-05-21T15:58:15.046Z,14.17
2019-05-21T16:01:02.879Z,15.17
2019-05-21T16:03:50.514Z,15.25
2019-05-21T16:06:38.743Z,15.18
2019-05-21T16:09:26.388Z,15.20
2019-05-21T16:12:14.426Z,14.36
2019-05-21T16:15:02.141Z,15.35
2019-05-21T16:17:50.090Z,15.32
2019-05-21T16:20:42.069Z,15.41
2019-05-21T16:23:26.843Z,15.30
2019-05-21T16:26:14.918Z,15.29
2019-05-21T16:29:03.172Z,15.23
2019-05-21T16:31:51.421Z,15.32
2019-05-21T16:34:39.334Z,15.35
2019-05-21T16:37:27.113Z,15.36
2019-05-21T16:40:14.765Z,15.33
2019-05-21T16:43:03.177Z,15.43
2019-05-21T16:45:50.932Z,15.44
2019-05-21T16:48:38.448Z,15.49
2019-05-21T16:51:26.702Z,15.71
2019-05-21T16:54:14.320Z,15.85
2019-05-21T16:57:02.057Z,16.04
2019-05-21T16:59:49.995Z,15.96
2019-05-21T17:02:37.698Z,15.98
2019-05-21T17:05:25.685Z,15.94
2019-05-21T17:08:13.622Z,15.92
2019-05-21T17:11:00.919Z,15.95
2019-05-21T17:13:49.245Z,15.90
2019-05-21T17:16:36.789Z,15.93
2019-05-21T17:19:25.062Z,15.86
2019-05-21T17:22:13.278Z,15.84
2019-05-21T17:25:00.937Z,15.68
2019-05-21T17:27:48.738Z,15.59
2019-05-21T17:30:36.696Z,15.39
2019-05-21T17:33:24.307Z,15.31
2019-05-21T17:36:12.472Z,15.26
2019-05-21T17:39:00.204Z,15.17
2019-05-21T17:41:47.996Z,15.13
2019-05-21T17:44:35.825Z,15.05
2019-05-21T17:47:23.490Z,15.08
2019-05-21T17:50:11.475Z,15.06
2019-05-21T17:52:59.424Z,14.99
2019-05-21T17:55:47.627Z,14.97
2019-05-21T17:58:35.351Z,14.93
2019-05-21T18:01:23.090Z,14.92
2019-05-21T18:04:10.911Z,14.90
2019-05-21T18:06:58.493Z,14.85
2019-05-21T18:09:46.938Z,14.79
2019-05-21T18:12:35.015Z,14.76
2019-05-21T18:15:22.898Z,14.69
2019-05-21T18:18:10.533Z,14.66
2019-05-21T18:20:58.367Z,14.68
2019-05-21T18:23:46.852Z,14.67
2019-05-21T18:26:35.073Z,14.61
2019-05-21T18:29:22.971Z,14.60
2019-05-21T18:32:10.698Z,14.54
2019-05-21T18:34:58.334Z,14.49
2019-05-21T18:37:45.955Z,14.48
2019-05-21T18:40:33.479Z,14.46
2019-05-21T18:43:21.052Z,14.44
2019-05-21T18:46:08.987Z,14.39
2019-05-21T18:48:57.195Z,14.30
2019-05-21T18:51:45.068Z,14.29
2019-05-21T18:54:32.966Z,14.13
2019-05-21T18:57:20.958Z,14.11
2019-05-21T19:00:08.566Z,14.11
2019-05-21T19:02:56.739Z,14.13
2019-05-21T19:05:44.492Z,14.11
2019-05-21T19:08:32.690Z,14.07
2019-05-21T19:11:20.490Z,14.07
2019-05-21T19:14:08.608Z,14.02
2019-05-21T19:16:56.229Z,14.02
2019-05-21T19:19:43.953Z,14.06
2019-05-21T19:22:32.195Z,14.04
2019-05-21T19:25:20.217Z,14.11
2019-05-21T19:28:08.116Z,14.10
2019-05-21T19:30:56.204Z,14.04
2019-05-21T19:33:44.422Z,13.96
2019-05-21T19:36:31.936Z,13.96
2019-05-21T19:39:19.858Z,13.99
2019-05-21T19:42:07.900Z,13.98
2019-05-21T19:44:56.177Z,14.01
2019-05-21T19:47:43.936Z,14.00
2019-05-21T19:50:31.659Z,13.99
2019-05-21T19:53:19.237Z,13.95
2019-05-21T19:56:07.602Z,13.96
2019-05-21T19:58:55.341Z,13.97
2019-05-21T20:01:43.093Z,13.96
2019-05-21T20:04:30.886Z,13.96
2019-05-21T20:07:18.844Z,13.94
2019-05-21T20:10:06.716Z,13.98
2019-05-21T20:12:54.828Z,13.95
2019-05-21T20:15:42.624Z,13.99
2019-05-21T20:18:30.163Z,13.95
2019-05-21T20:21:18.042Z,13.93
2019-05-21T20:24:05.823Z,13.92
2019-05-21T20:26:53.409Z,13.88
2019-05-21T20:29:41.645Z,13.91
2019-05-21T20:32:29.332Z,13.90
2019-05-21T20:35:17.332Z,13.86
2019-05-21T20:38:05.540Z,13.80
2019-05-21T20:40:53.817Z,13.80
2019-05-21T20:43:41.839Z,13.76
2019-05-21T20:46:29.505Z,13.77
2019-05-21T20:49:17.618Z,13.70
2019-05-21T20:52:18.225Z,13.68
2019-05-21T20:54:53.448Z,13.66
2019-05-21T20:57:41.601Z,13.62
2019-05-21T21:00:34.724Z,13.62
2019-05-21T21:03:22.672Z,13.57
2019-05-21T21:06:10.187Z,13.54
2019-05-21T21:08:58.291Z,13.52
2019-05-21T21:11:46.097Z,13.50
2019-05-21T21:14:34.238Z,13.50
2019-05-21T21:17:22.053Z,13.47
2019-05-21T21:20:10.296Z,13.47
2019-05-21T21:22:58.035Z,13.53
2019-05-21T21:25:45.841Z,13.47
2019-05-21T21:28:37.203Z,13.45
2019-05-21T21:31:22.489Z,13.37
2019-05-21T21:34:10.270Z,13.34
2019-05-21T21:36:58.713Z,13.30
2019-05-21T21:39:46.971Z,13.35
2019-05-21T21:42:34.611Z,13.27
2019-05-21T21:45:22.444Z,13.24
2019-05-21T21:48:10.880Z,13.23
2019-05-21T21:50:59.006Z,13.19
2019-05-21T21:53:47.209Z,13.16
2019-05-21T21:56:35.510Z,13.14
2019-05-21T21:59:23.658Z,13.11
2019-05-21T22:04:43.964Z,13.16
2019-05-21T22:07:31.532Z,13.12
2019-05-21T22:10:19.616Z,13.08
2019-05-21T22:13:07.850Z,12.98
2019-05-21T22:15:55.278Z,13.00
2019-05-21T22:18:43.632Z,12.93
2019-05-21T22:21:31.159Z,12.86
2019-05-21T22:24:19.299Z,12.82
2019-05-21T22:27:07.159Z,12.72
2019-05-21T22:29:54.813Z,12.74
2019-05-21T22:32:42.612Z,12.75
2019-05-21T22:35:30.488Z,12.74
2019-05-21T22:38:18.438Z,12.77
2019-05-21T22:41:06.515Z,12.73
2019-05-21T22:43:54.695Z,12.68
2019-05-21T22:46:42.927Z,12.68
2019-05-21T22:49:33.825Z,12.67
2019-05-21T22:52:17.940Z,12.65
2019-05-21T22:55:06.386Z,12.61
2019-05-21T22:57:54.173Z,12.65
2019-05-21T23:00:41.922Z,12.64
2019-05-21T23:03:30.100Z,12.64
2019-05-21T23:06:18.192Z,12.64
2019-05-21T23:09:06.958Z,12.58
2019-05-21T23:11:54.870Z,12.60
2019-05-21T23:14:42.736Z,12.61
2019-05-21T23:17:31.005Z,12.56
2019-05-21T23:20:18.558Z,12.60
2019-05-21T23:23:06.868Z,12.60
2019-05-21T23:25:55.123Z,12.51
2019-05-21T23:28:42.688Z,12.54
2019-05-21T23:31:30.718Z,12.56
2019-05-21T23:34:19.022Z,12.56
2019-05-21T23:37:07.529Z,12.54
2019-05-21T23:39:55.735Z,12.58
2019-05-21T23:42:43.763Z,12.57
2019-05-21T23:45:31.642Z,12.59
2019-05-21T23:48:19.525Z,12.49
2019-05-21T23:51:07.205Z,12.52
2019-05-21T23:53:55.483Z,12.51
2019-05-21T23:56:43.774Z,12.48
2019-05-21T23:59:31.914Z,12.52
